Time;durP1;ratioP1;P1;durP2;ratioP2;P2;SDS_P1;SDS_P2;PMS_P1;PMS_P2;Temp;Humidity;BMP_temperature;BMP_pressure;BME280_temperature;BME280_humidity;BME280_pressure;Samples;Min_cycle;Max_cycle;Signal;HPM_P1;HPM_P2
2023/12/15 00:00:18;;;;;;;12.93;7.57;;;;;;;;;;1048102;28;20047;-64
2023/12/15 00:01:09;;;;;;;11.90;6.68;;;;;;;;;;1043086;28;20056;-67
2023/12/15 00:01:49;;;;;;;13.95;8.43;;;;;;;;;;1043409;28;20106;-67
2023/12/15 00:02:19;;;;;;;12.65;7.78;;;;;;;;;;1044629;28;20131;-66
2023/12/15 00:02:50;;;;;;;14.48;8.18;;;;;;;;;;1043841;28;20122;-66
2023/12/15 00:03:20;;;;;;;11.32;6.15;;;;;;;;;;1045386;28;20048;-67
2023/12/15 00:03:51;;;;;;;12.75;6.80;;;;;;;;;;1044780;28;20117;-66
2023/12/15 00:04:21;;;;;;;10.80;6.68;;;;;;;;;;1045801;28;20090;-66
2023/12/15 00:04:52;;;;;;;13.38;8.15;;;;;;;;;;1045857;28;20048;-66
2023/12/15 00:05:23;;;;;;;11.68;6.57;;;;;;;;;;1049341;28;20040;-66
2023/12/15 00:05:54;;;;;;;13.43;8.35;;;;;;;;;;1049013;28;20055;-66
2023/12/15 00:06:25;;;;;;;11.60;7.45;;;;;;;;;;1047426;28;20044;-66
2023/12/15 00:06:55;;;;;;;18.10;8.02;;;;;;;;;;1047314;28;20048;-67
2023/12/15 00:07:26;;;;;;;13.82;9.23;;;;;;;;;;1049076;28;20059;-66
2023/12/15 00:07:56;;;;;;;16.02;9.32;;;;;;;;;;1047728;28;20423;-66
2023/12/15 00:08:27;;;;;;;12.15;7.93;;;;;;;;;;1047629;28;20110;-66
2023/12/15 00:08:57;;;;;;;10.15;7.53;;;;;;;;;;1049441;28;20559;-66
2023/12/15 00:09:28;;;;;;;12.40;7.97;;;;;;;;;;1049022;28;20036;-66
2023/12/15 00:09:59;;;;;;;11.90;7.50;;;;;;;;;;1048030;28;20752;-66
2023/12/15 00:10:31;;;;;;;13.98;8.45;;;;;;;;;;1047715;28;20586;-67
2023/12/15 00:11:01;;;;;;;13.18;8.13;;;;;;;;;;1048716;28;20106;-67
2023/12/15 00:11:32;;;;;;;11.95;7.40;;;;;;;;;;1049163;28;20054;-67
2023/12/15 00:12:03;;;;;;;13.35;7.80;;;;;;;;;;1048750;28;20052;-66
2023/12/15 00:12:34;;;;;;;13.23;8.00;;;;;;;;;;1049935;28;20397;-67
2023/12/15 00:13:04;;;;;;;10.25;6.80;;;;;;;;;;1050049;28;20504;-66
2023/12/15 00:13:35;;;;;;;12.38;7.63;;;;;;;;;;1047592;28;20044;-67
2023/12/15 00:14:06;;;;;;;14.38;8.13;;;;;;;;;;1049467;28;20052;-66
2023/12/15 00:14:36;;;;;;;12.65;7.95;;;;;;;;;;1049688;28;20420;-66
2023/12/15 00:15:07;;;;;;;12.63;7.70;;;;;;;;;;1048432;28;20562;-67
2023/12/15 00:15:38;;;;;;;14.38;7.63;;;;;;;;;;1049219;28;20062;-67
2023/12/15 00:16:08;;;;;;;12.40;8.07;;;;;;;;;;1048653;28;20056;-66
2023/12/15 00:16:39;;;;;;;13.45;7.53;;;;;;;;;;1050199;28;20109;-67
2023/12/15 00:17:10;;;;;;;14.10;6.90;;;;;;;;;;1050075;28;20585;-66
2023/12/15 00:17:40;;;;;;;13.27;7.00;;;;;;;;;;1049710;28;20063;-66
2023/12/15 00:18:11;;;;;;;12.02;7.22;;;;;;;;;;1049953;28;20113;-66
2023/12/15 00:18:41;;;;;;;11.18;7.25;;;;;;;;;;1049608;28;20048;-66
2023/12/15 00:19:12;;;;;;;12.82;7.93;;;;;;;;;;1049202;28;20089;-66
2023/12/15 00:19:43;;;;;;;12.93;7.63;;;;;;;;;;1049681;28;20055;-67
2023/12/15 00:20:14;;;;;;;11.48;6.40;;;;;;;;;;1050158;28;20104;-66
2023/12/15 00:20:44;;;;;;;11.60;7.63;;;;;;;;;;1048519;28;20098;-66
2023/12/15 00:21:15;;;;;;;18.92;7.15;;;;;;;;;;1049690;28;20040;-66
2023/12/15 00:21:46;;;;;;;10.20;6.18;;;;;;;;;;1046902;28;20059;-66
2023/12/15 00:22:16;;;;;;;10.60;6.68;;;;;;;;;;1050265;28;20048;-66
2023/12/15 00:22:47;;;;;;;11.57;6.35;;;;;;;;;;1050034;28;20051;-66
2023/12/15 00:23:17;;;;;;;13.13;6.07;;;;;;;;;;1048480;28;20052;-66
2023/12/15 00:23:48;;;;;;;14.13;8.23;;;;;;;;;;1048640;28;20068;-66
2023/12/15 00:24:18;;;;;;;11.70;6.88;;;;;;;;;;1049036;28;20551;-67
2023/12/15 00:24:49;;;;;;;9.07;5.63;;;;;;;;;;1048515;28;20076;-66
2023/12/15 00:25:20;;;;;;;14.20;6.40;;;;;;;;;;1047488;28;20056;-67
2023/12/15 00:25:50;;;;;;;11.98;6.72;;;;;;;;;;1048632;28;20036;-66
2023/12/15 00:26:21;;;;;;;10.73;7.45;;;;;;;;;;1049998;28;20048;-68
2023/12/15 00:26:51;;;;;;;10.93;6.78;;;;;;;;;;1048913;28;20094;-66
2023/12/15 00:27:22;;;;;;;11.68;6.70;;;;;;;;;;1048893;28;20127;-66
2023/12/15 00:27:52;;;;;;;11.45;6.78;;;;;;;;;;1049774;28;20071;-66
2023/12/15 00:28:23;;;;;;;10.52;6.65;;;;;;;;;;1048626;28;20048;-66
2023/12/15 00:28:54;;;;;;;12.52;7.40;;;;;;;;;;1049931;28;20047;-66
2023/12/15 00:29:25;;;;;;;12.80;7.30;;;;;;;;;;1050335;28;20047;-66
2023/12/15 00:29:55;;;;;;;11.23;6.50;;;;;;;;;;1049771;28;20062;-66
2023/12/15 00:30:26;;;;;;;10.82;6.15;;;;;;;;;;1049118;28;20054;-66
2023/12/15 00:30:56;;;;;;;10.82;6.72;;;;;;;;;;1048465;28;20048;-67
2023/12/15 00:31:27;;;;;;;8.73;5.65;;;;;;;;;;1049886;28;20055;-67
2023/12/15 00:31:57;;;;;;;9.88;6.35;;;;;;;;;;1048359;28;20047;-67
2023/12/15 00:32:28;;;;;;;9.43;5.93;;;;;;;;;;1049333;28;20131;-66
2023/12/15 00:32:59;;;;;;;12.60;6.55;;;;;;;;;;1048536;28;20058;-67
2023/12/15 00:33:29;;;;;;;11.13;6.75;;;;;;;;;;1049768;28;20047;-66
2023/12/15 00:34:00;;;;;;;12.13;6.38;;;;;;;;;;1047705;28;20052;-67
2023/12/15 00:34:30;;;;;;;10.73;6.95;;;;;;;;;;1049741;28;20078;-67
2023/12/15 00:35:01;;;;;;;10.13;6.40;;;;;;;;;;1048663;28;20048;-67
2023/12/15 00:35:31;;;;;;;13.50;7.28;;;;;;;;;;1048613;28;20055;-67
2023/12/15 00:36:02;;;;;;;9.50;6.72;;;;;;;;;;1049700;28;20048;-66
2023/12/15 00:36:33;;;;;;;14.25;7.85;;;;;;;;;;1047723;28;20048;-66
2023/12/15 00:37:03;;;;;;;12.70;7.25;;;;;;;;;;1049355;28;20056;-67
2023/12/15 00:37:34;;;;;;;13.35;7.05;;;;;;;;;;1049748;28;20056;-66
2023/12/15 00:38:04;;;;;;;10.27;6.35;;;;;;;;;;1050382;28;20048;-66
2023/12/15 00:38:35;;;;;;;9.25;6.15;;;;;;;;;;1049449;28;20812;-66
2023/12/15 00:39:05;;;;;;;12.00;6.97;;;;;;;;;;1050084;28;20052;-66
2023/12/15 00:39:36;;;;;;;10.82;6.72;;;;;;;;;;1050365;28;20058;-67
2023/12/15 00:40:10;;;;;;;9.45;5.90;;;;;;;;;;1049090;28;20140;-66
2023/12/15 00:40:41;;;;;;;11.30;6.50;;;;;;;;;;1049841;28;20036;-66
2023/12/15 00:41:11;;;;;;;11.00;6.43;;;;;;;;;;1050342;28;20109;-67
2023/12/15 00:41:42;;;;;;;9.25;6.18;;;;;;;;;;1049393;28;20036;-66
2023/12/15 00:42:12;;;;;;;10.43;6.60;;;;;;;;;;1050034;28;20519;-66
2023/12/15 00:42:43;;;;;;;9.48;5.95;;;;;;;;;;1048517;28;20181;-66
2023/12/15 00:43:14;;;;;;;11.63;6.20;;;;;;;;;;1048102;28;20056;-66
2023/12/15 00:43:44;;;;;;;11.13;6.63;;;;;;;;;;1047262;28;20805;-67
2023/12/15 00:44:15;;;;;;;10.85;6.75;;;;;;;;;;1050131;28;20048;-66
2023/12/15 00:44:46;;;;;;;10.13;6.80;;;;;;;;;;1049926;28;20048;-67
2023/12/15 00:45:16;;;;;;;11.38;7.00;;;;;;;;;;1048131;28;20568;-67
2023/12/15 00:45:47;;;;;;;10.93;6.47;;;;;;;;;;1048791;28;20071;-66
2023/12/15 00:46:17;;;;;;;11.57;7.32;;;;;;;;;;1048816;28;20048;-66
2023/12/15 00:46:48;;;;;;;11.15;6.82;;;;;;;;;;1048535;28;20131;-67
2023/12/15 00:47:18;;;;;;;9.27;6.30;;;;;;;;;;1047691;28;20063;-66
2023/12/15 00:47:49;;;;;;;12.13;6.93;;;;;;;;;;1048110;28;20063;-66
2023/12/15 00:48:20;;;;;;;11.38;6.85;;;;;;;;;;1050551;28;20040;-66
2023/12/15 00:48:51;;;;;;;11.40;6.55;;;;;;;;;;1047939;28;20044;-66
2023/12/15 00:49:21;;;;;;;10.20;6.85;;;;;;;;;;1049825;28;20043;-67
2023/12/15 00:49:52;;;;;;;10.25;6.13;;;;;;;;;;1047589;28;20055;-67
2023/12/15 00:50:23;;;;;;;12.73;6.30;;;;;;;;;;1048839;28;20113;-67
2023/12/15 00:50:53;;;;;;;9.40;6.35;;;;;;;;;;1049439;28;20048;-67
2023/12/15 00:51:24;;;;;;;10.98;8.10;;;;;;;;;;1047875;28;20068;-66
2023/12/15 00:51:55;;;;;;;12.02;6.85;;;;;;;;;;1048869;28;20040;-67
2023/12/15 00:52:25;;;;;;;11.43;6.25;;;;;;;;;;1050055;28;20074;-66
2023/12/15 00:52:57;;;;;;;14.77;6.80;;;;;;;;;;1048770;28;20437;-67
2023/12/15 00:53:32;;;;;;;11.82;6.65;;;;;;;;;;1048599;28;20108;-66
2023/12/15 00:54:02;;;;;;;10.43;6.50;;;;;;;;;;1049022;28;20056;-66
2023/12/15 00:54:33;;;;;;;9.23;6.43;;;;;;;;;;1049590;28;20138;-66
2023/12/15 00:55:04;;;;;;;13.57;6.90;;;;;;;;;;1050238;28;20052;-66
2023/12/15 00:55:35;;;;;;;12.82;7.70;;;;;;;;;;1048566;28;20256;-66
2023/12/15 00:56:07;;;;;;;10.82;6.20;;;;;;;;;;1049427;28;20048;-66
2023/12/15 00:56:37;;;;;;;11.90;6.47;;;;;;;;;;1049335;28;20125;-66
2023/12/15 00:57:08;;;;;;;13.38;6.97;;;;;;;;;;1049938;28;20129;-67
2023/12/15 00:57:38;;;;;;;11.88;6.90;;;;;;;;;;1049587;28;20063;-66
2023/12/15 00:58:09;;;;;;;9.77;6.57;;;;;;;;;;1048532;28;20052;-66
2023/12/15 00:58:39;;;;;;;9.85;6.35;;;;;;;;;;1049874;28;20055;-67
2023/12/15 00:59:10;;;;;;;10.82;6.00;;;;;;;;;;1050037;28;20822;-66
2023/12/15 00:59:40;;;;;;;10.48;6.78;;;;;;;;;;1050061;28;20052;-67
2023/12/15 01:00:11;;;;;;;13.07;6.43;;;;;;;;;;1047445;28;23164;-67
2023/12/15 01:00:42;;;;;;;10.23;6.43;;;;;;;;;;1049502;28;20479;-66
2023/12/15 01:01:12;;;;;;;10.52;6.68;;;;;;;;;;1050268;28;20137;-66
2023/12/15 01:01:43;;;;;;;10.93;6.25;;;;;;;;;;1048935;28;20142;-67
2023/12/15 01:02:13;;;;;;;12.73;6.47;;;;;;;;;;1047890;28;20040;-66
2023/12/15 01:02:44;;;;;;;10.40;6.30;;;;;;;;;;1049858;28;20055;-67
2023/12/15 01:03:14;;;;;;;9.20;6.22;;;;;;;;;;1050466;28;20484;-67
2023/12/15 01:03:45;;;;;;;9.07;5.63;;;;;;;;;;1049499;28;20066;-66
2023/12/15 01:04:16;;;;;;;12.60;6.30;;;;;;;;;;1049368;28;20044;-67
2023/12/15 01:04:46;;;;;;;12.80;7.43;;;;;;;;;;1048388;28;20056;-67
2023/12/15 01:05:17;;;;;;;10.45;6.15;;;;;;;;;;1049752;28;20089;-67
2023/12/15 01:05:50;;;;;;;9.77;6.35;;;;;;;;;;1048202;28;20195;-67
2023/12/15 01:06:20;;;;;;;10.48;6.57;;;;;;;;;;1050238;28;20048;-66
2023/12/15 01:06:51;;;;;;;11.68;6.80;;;;;;;;;;1049163;28;20044;-67
2023/12/15 01:07:22;;;;;;;12.77;7.22;;;;;;;;;;1049909;28;20055;-66
2023/12/15 01:07:53;;;;;;;11.68;6.85;;;;;;;;;;1049842;28;20059;-67
2023/12/15 01:08:24;;;;;;;8.95;5.90;;;;;;;;;;1048780;28;20448;-67
2023/12/15 01:08:55;;;;;;;10.85;6.28;;;;;;;;;;1049527;28;21886;-67
2023/12/15 01:09:26;;;;;;;11.38;6.22;;;;;;;;;;1049522;28;20059;-66
2023/12/15 01:09:57;;;;;;;10.20;6.45;;;;;;;;;;1049236;28;20093;-67
2023/12/15 01:10:27;;;;;;;11.35;6.43;;;;;;;;;;1047462;28;20040;-67
2023/12/15 01:10:58;;;;;;;10.40;6.20;;;;;;;;;;1049769;28;20487;-67
2023/12/15 01:11:28;;;;;;;10.75;5.70;;;;;;;;;;1049430;28;20058;-66
2023/12/15 01:11:59;;;;;;;14.27;6.85;;;;;;;;;;1049606;28;20056;-67
2023/12/15 01:12:30;;;;;;;10.73;6.85;;;;;;;;;;1048094;28;20044;-66
2023/12/15 01:13:00;;;;;;;14.57;7.93;;;;;;;;;;1050361;28;20223;-67
2023/12/15 01:13:31;;;;;;;13.00;7.57;;;;;;;;;;1049715;28;20133;-66
2023/12/15 01:14:02;;;;;;;11.32;7.50;;;;;;;;;;1047610;28;20548;-67
2023/12/15 01:14:32;;;;;;;13.75;7.63;;;;;;;;;;1047882;28;20052;-67
2023/12/15 01:15:03;;;;;;;12.77;7.57;;;;;;;;;;1047227;28;20050;-66
2023/12/15 01:15:34;;;;;;;14.55;7.93;;;;;;;;;;1049598;28;20048;-67
2023/12/15 01:16:06;;;;;;;12.57;6.78;;;;;;;;;;1048827;28;20101;-67
2023/12/15 01:16:44;;;;;;;12.55;7.03;;;;;;;;;;1050437;28;20563;-66
2023/12/15 01:17:14;;;;;;;9.50;6.50;;;;;;;;;;1050030;28;20062;-66
2023/12/15 01:17:45;;;;;;;13.48;8.02;;;;;;;;;;1048710;28;20062;-66
2023/12/15 01:18:15;;;;;;;11.55;7.15;;;;;;;;;;1049022;28;20054;-66
2023/12/15 01:18:46;;;;;;;12.15;7.88;;;;;;;;;;1048863;28;20595;-67
2023/12/15 01:19:20;;;;;;;13.43;7.97;;;;;;;;;;1049329;28;20127;-67
2023/12/15 01:19:50;;;;;;;13.73;7.75;;;;;;;;;;1050217;28;20048;-67
2023/12/15 01:20:21;;;;;;;12.70;6.43;;;;;;;;;;1048057;28;20048;-66
2023/12/15 01:20:52;;;;;;;14.07;8.60;;;;;;;;;;1049146;28;20101;-67
2023/12/15 01:21:23;;;;;;;16.25;7.95;;;;;;;;;;1049031;28;20052;-67
2023/12/15 01:21:53;;;;;;;16.48;7.80;;;;;;;;;;1049281;28;20055;-67
2023/12/15 01:22:24;;;;;;;14.63;7.95;;;;;;;;;;1049351;28;20047;-67
2023/12/15 01:22:54;;;;;;;14.70;8.20;;;;;;;;;;1049619;28;20044;-67
2023/12/15 01:23:25;;;;;;;13.75;8.13;;;;;;;;;;1048489;28;20064;-66
2023/12/15 01:23:55;;;;;;;16.58;8.68;;;;;;;;;;1049104;28;20055;-66
2023/12/15 01:24:26;;;;;;;16.02;8.68;;;;;;;;;;1047668;28;20046;-66
2023/12/15 01:24:57;;;;;;;14.15;8.52;;;;;;;;;;1047062;28;20048;-66
2023/12/15 01:25:27;;;;;;;19.20;9.15;;;;;;;;;;1049911;28;20028;-67
2023/12/15 01:25:57;;;;;;;14.68;8.55;;;;;;;;;;1049116;28;20059;-66
2023/12/15 01:26:28;;;;;;;23.88;8.55;;;;;;;;;;1048214;28;20043;-67
2023/12/15 01:26:58;;;;;;;14.18;7.55;;;;;;;;;;1049984;28;20194;-67
2023/12/15 01:27:29;;;;;;;16.88;8.82;;;;;;;;;;1049180;28;20470;-67
2023/12/15 01:28:00;;;;;;;13.52;7.63;;;;;;;;;;1047706;28;20044;-66
2023/12/15 01:28:30;;;;;;;15.98;7.97;;;;;;;;;;1048742;28;20755;-66
2023/12/15 01:29:01;;;;;;;16.15;8.05;;;;;;;;;;1048001;28;20727;-66
2023/12/15 01:29:32;;;;;;;15.88;9.18;;;;;;;;;;1047316;28;20052;-66
2023/12/15 01:30:02;;;;;;;16.35;9.43;;;;;;;;;;1047390;28;20054;-67
2023/12/15 01:30:33;;;;;;;17.25;8.77;;;;;;;;;;1047513;28;22319;-67
2023/12/15 01:31:04;;;;;;;17.10;8.75;;;;;;;;;;1049175;28;20063;-68
2023/12/15 01:31:34;;;;;;;17.00;9.27;;;;;;;;;;1048834;28;20044;-66
2023/12/15 01:32:05;;;;;;;14.90;7.88;;;;;;;;;;1049272;28;20061;-67
2023/12/15 01:32:36;;;;;;;14.45;7.70;;;;;;;;;;1048261;28;20049;-66
2023/12/15 01:33:07;;;;;;;16.23;8.88;;;;;;;;;;1048707;28;20044;-66
2023/12/15 01:33:37;;;;;;;24.25;11.02;;;;;;;;;;1050256;28;22159;-66
2023/12/15 01:34:08;;;;;;;17.33;9.02;;;;;;;;;;1049210;28;20518;-66
2023/12/15 01:34:38;;;;;;;16.00;9.15;;;;;;;;;;1049096;28;20051;-67
2023/12/15 01:35:09;;;;;;;15.13;8.60;;;;;;;;;;1049338;28;20055;-66
2023/12/15 01:35:39;;;;;;;17.55;9.55;;;;;;;;;;1049210;28;20063;-67
2023/12/15 01:36:10;;;;;;;17.98;9.75;;;;;;;;;;1049515;28;20040;-67
2023/12/15 01:36:40;;;;;;;15.27;8.77;;;;;;;;;;1048079;28;20040;-66
2023/12/15 01:37:11;;;;;;;19.45;10.10;;;;;;;;;;1050362;28;20048;-66
2023/12/15 01:37:42;;;;;;;16.38;9.23;;;;;;;;;;1049579;28;20059;-67
2023/12/15 01:38:12;;;;;;;15.10;9.18;;;;;;;;;;1047449;28;20049;-67
2023/12/15 01:38:43;;;;;;;16.98;8.93;;;;;;;;;;1048019;28;20048;-67
2023/12/15 01:39:14;;;;;;;19.13;9.95;;;;;;;;;;1049621;28;20082;-67
2023/12/15 01:39:44;;;;;;;14.95;7.80;;;;;;;;;;1049811;28;20066;-67
2023/12/15 01:40:15;;;;;;;18.05;9.52;;;;;;;;;;1048825;28;20047;-67
2023/12/15 01:40:46;;;;;;;17.85;9.25;;;;;;;;;;1048889;28;20051;-67
2023/12/15 01:41:16;;;;;;;17.35;9.48;;;;;;;;;;1047550;28;20126;-66
2023/12/15 01:41:47;;;;;;;19.63;9.48;;;;;;;;;;1048896;28;20104;-66
2023/12/15 01:42:18;;;;;;;18.75;9.60;;;;;;;;;;1048529;28;20097;-66
2023/12/15 01:42:49;;;;;;;17.38;10.10;;;;;;;;;;1048949;28;20113;-66
2023/12/15 01:43:19;;;;;;;20.40;10.48;;;;;;;;;;1047482;28;20058;-67
2023/12/15 01:43:50;;;;;;;16.35;9.20;;;;;;;;;;1047061;28;20048;-67
2023/12/15 01:44:21;;;;;;;19.50;9.68;;;;;;;;;;1048502;28;20431;-67
2023/12/15 01:44:52;;;;;;;16.70;8.25;;;;;;;;;;1048260;28;20036;-67
2023/12/15 01:45:23;;;;;;;18.20;9.98;;;;;;;;;;1049478;28;20048;-67
2023/12/15 01:45:53;;;;;;;18.92;9.48;;;;;;;;;;1048462;28;20040;-67
2023/12/15 01:46:24;;;;;;;18.52;10.07;;;;;;;;;;1048085;28;20050;-67
2023/12/15 01:46:54;;;;;;;18.27;9.52;;;;;;;;;;1047125;28;20044;-67
2023/12/15 01:47:25;;;;;;;17.17;9.77;;;;;;;;;;1049133;28;20048;-67
2023/12/15 01:47:56;;;;;;;17.17;9.27;;;;;;;;;;1048889;28;20407;-66
2023/12/15 01:48:29;;;;;;;19.80;9.90;;;;;;;;;;1049545;28;20427;-67
2023/12/15 01:49:00;;;;;;;17.13;10.00;;;;;;;;;;1048419;28;20056;-67
2023/12/15 01:49:31;;;;;;;19.30;10.10;;;;;;;;;;1049388;28;20055;-66
2023/12/15 01:50:01;;;;;;;16.52;8.82;;;;;;;;;;1047222;28;20739;-67
2023/12/15 01:50:32;;;;;;;15.70;8.80;;;;;;;;;;1049527;28;21426;-67
2023/12/15 01:51:03;;;;;;;19.90;9.85;;;;;;;;;;1047298;28;20108;-66
2023/12/15 01:51:34;;;;;;;16.30;9.38;;;;;;;;;;1049121;28;20048;-66
2023/12/15 01:52:05;;;;;;;20.33;9.85;;;;;;;;;;1048647;28;20056;-67
2023/12/15 01:52:35;;;;;;;19.73;9.57;;;;;;;;;;1048303;28;20470;-66
2023/12/15 01:53:06;;;;;;;14.57;9.02;;;;;;;;;;1048275;28;20498;-67
2023/12/15 01:53:36;;;;;;;17.52;10.20;;;;;;;;;;1048999;28;20498;-67
2023/12/15 01:54:07;;;;;;;17.42;9.57;;;;;;;;;;1047797;28;20050;-67
2023/12/15 01:54:37;;;;;;;15.93;9.27;;;;;;;;;;1048100;28;20767;-67
2023/12/15 01:55:08;;;;;;;17.75;9.93;;;;;;;;;;1048907;28;20050;-67
2023/12/15 01:55:39;;;;;;;16.67;9.32;;;;;;;;;;1048095;28;20106;-68
2023/12/15 01:56:10;;;;;;;16.65;9.38;;;;;;;;;;1047835;28;20048;-67
2023/12/15 01:56:41;;;;;;;15.48;9.13;;;;;;;;;;1046983;28;20135;-67
2023/12/15 01:57:12;;;;;;;18.73;9.90;;;;;;;;;;1048537;28;20040;-67
2023/12/15 01:57:43;;;;;;;18.00;10.50;;;;;;;;;;1047385;28;20058;-66
2023/12/15 01:58:14;;;;;;;17.25;9.68;;;;;;;;;;1049861;28;20050;-67
2023/12/15 01:58:44;;;;;;;17.80;9.63;;;;;;;;;;1048075;28;20067;-67
2023/12/15 01:59:15;;;;;;;18.00;10.27;;;;;;;;;;1048629;28;20142;-67
2023/12/15 01:59:49;;;;;;;18.73;9.68;;;;;;;;;;1048478;28;20052;-68
2023/12/15 02:00:19;;;;;;;18.88;10.40;;;;;;;;;;1047532;28;20040;-67
2023/12/15 02:00:50;;;;;;;17.30;9.95;;;;;;;;;;1048053;28;20052;-66
2023/12/15 02:01:20;;;;;;;16.75;9.48;;;;;;;;;;1049149;28;23278;-66
2023/12/15 02:01:51;;;;;;;18.77;10.13;;;;;;;;;;1048541;28;20440;-67
2023/12/15 02:02:21;;;;;;;19.85;11.48;;;;;;;;;;1048360;28;20053;-66
2023/12/15 02:02:52;;;;;;;17.80;9.52;;;;;;;;;;1049078;28;20036;-66
2023/12/15 02:03:22;;;;;;;16.50;9.48;;;;;;;;;;1050087;28;20052;-67
2023/12/15 02:03:53;;;;;;;18.92;10.13;;;;;;;;;;1046714;28;20079;-66
2023/12/15 02:04:24;;;;;;;16.00;8.23;;;;;;;;;;1048796;28;20047;-67
2023/12/15 02:04:54;;;;;;;20.83;10.68;;;;;;;;;;1049040;28;20044;-67
2023/12/15 02:05:25;;;;;;;18.17;9.75;;;;;;;;;;1048601;28;20067;-66
2023/12/15 02:05:55;;;;;;;16.10;9.07;;;;;;;;;;1049644;28;23051;-66
2023/12/15 02:06:26;;;;;;;18.20;9.98;;;;;;;;;;1049271;28;20053;-67
2023/12/15 02:06:56;;;;;;;17.55;9.75;;;;;;;;;;1047318;28;20049;-66
2023/12/15 02:07:27;;;;;;;17.48;9.43;;;;;;;;;;1049382;28;20042;-66
2023/12/15 02:07:59;;;;;;;15.23;8.32;;;;;;;;;;1049692;28;20040;-67
2023/12/15 02:08:29;;;;;;;17.10;9.57;;;;;;;;;;1049622;28;20079;-66
2023/12/15 02:09:00;;;;;;;16.88;8.82;;;;;;;;;;1048321;28;20052;-67
2023/12/15 02:09:30;;;;;;;18.92;9.98;;;;;;;;;;1048636;28;20519;-67
2023/12/15 02:10:01;;;;;;;16.80;9.45;;;;;;;;;;1050137;28;20052;-67
2023/12/15 02:10:37;;;;;;;19.30;9.55;;;;;;;;;;1048176;28;20052;-66
2023/12/15 02:11:08;;;;;;;15.25;8.63;;;;;;;;;;1049969;28;20131;-67
2023/12/15 02:11:39;;;;;;;15.23;8.90;;;;;;;;;;1047415;28;20066;-67
2023/12/15 02:12:09;;;;;;;15.95;8.68;;;;;;;;;;1048179;28;20101;-66
2023/12/15 02:12:40;;;;;;;13.50;7.60;;;;;;;;;;1048806;28;20147;-68
2023/12/15 02:13:10;;;;;;;19.65;9.93;;;;;;;;;;1047720;28;20524;-67
2023/12/15 02:13:41;;;;;;;15.77;9.35;;;;;;;;;;1048254;28;20070;-66
2023/12/15 02:14:11;;;;;;;15.95;8.48;;;;;;;;;;1048650;28;20090;-67
2023/12/15 02:14:43;;;;;;;14.38;8.68;;;;;;;;;;1048196;28;20044;-66
2023/12/15 02:15:13;;;;;;;18.63;9.65;;;;;;;;;;1047697;28;20048;-66
2023/12/15 02:15:44;;;;;;;18.73;10.35;;;;;;;;;;1048620;28;20048;-66
2023/12/15 02:16:15;;;;;;;16.85;8.55;;;;;;;;;;1049767;28;20051;-67
2023/12/15 02:16:45;;;;;;;16.52;9.05;;;;;;;;;;1048766;28;20039;-67
2023/12/15 02:17:16;;;;;;;18.88;9.23;;;;;;;;;;1048065;28;20182;-66
2023/12/15 02:17:46;;;;;;;17.35;8.98;;;;;;;;;;1048774;28;20048;-67
2023/12/15 02:18:17;;;;;;;16.80;9.15;;;;;;;;;;1048393;28;20126;-67
2023/12/15 02:18:47;;;;;;;16.88;9.02;;;;;;;;;;1048101;28;20048;-66
2023/12/15 02:19:18;;;;;;;18.48;9.30;;;;;;;;;;1048093;28;20465;-66
2023/12/15 02:19:49;;;;;;;16.45;9.10;;;;;;;;;;1049066;28;20063;-67
2023/12/15 02:20:19;;;;;;;16.40;8.30;;;;;;;;;;1048499;28;20641;-67
2023/12/15 02:20:50;;;;;;;16.75;8.30;;;;;;;;;;1047346;28;20151;-67
2023/12/15 02:21:20;;;;;;;16.05;8.77;;;;;;;;;;1049263;28;20599;-66
2023/12/15 02:21:51;;;;;;;15.18;8.75;;;;;;;;;;1048050;28;20442;-67
2023/12/15 02:22:26;;;;;;;17.35;9.85;;;;;;;;;;1046650;28;20586;-67
2023/12/15 02:22:59;;;;;;;16.38;9.05;;;;;;;;;;1048288;28;20086;-67
2023/12/15 02:23:29;;;;;;;17.52;8.63;;;;;;;;;;1050056;28;20460;-66
2023/12/15 02:24:00;;;;;;;18.65;9.63;;;;;;;;;;1048155;28;20563;-66
2023/12/15 02:24:30;;;;;;;17.98;8.82;;;;;;;;;;1047941;28;20044;-66
2023/12/15 02:25:01;;;;;;;13.65;8.05;;;;;;;;;;1048298;28;20480;-66
2023/12/15 02:25:31;;;;;;;15.93;8.50;;;;;;;;;;1049437;28;20071;-67
2023/12/15 02:26:02;;;;;;;17.40;9.45;;;;;;;;;;1047732;28;20052;-66
2023/12/15 02:26:33;;;;;;;21.35;9.93;;;;;;;;;;1048845;28;20048;-66
2023/12/15 02:27:04;;;;;;;19.15;9.50;;;;;;;;;;1048775;28;20045;-66
2023/12/15 02:27:34;;;;;;;18.95;9.45;;;;;;;;;;1047545;28;20115;-67
2023/12/15 02:28:05;;;;;;;19.90;9.70;;;;;;;;;;1046585;28;20095;-66
2023/12/15 02:28:35;;;;;;;18.70;9.13;;;;;;;;;;1049279;28;20601;-66
2023/12/15 02:29:06;;;;;;;18.88;9.13;;;;;;;;;;1048246;28;20052;-66
2023/12/15 02:29:36;;;;;;;15.43;8.80;;;;;;;;;;1048986;28;20434;-66
2023/12/15 02:30:07;;;;;;;16.48;8.70;;;;;;;;;;1047749;28;20722;-66
2023/12/15 02:30:38;;;;;;;16.98;8.63;;;;;;;;;;1047708;28;20827;-66
2023/12/15 02:31:09;;;;;;;17.13;8.63;;;;;;;;;;1049734;28;20536;-67
2023/12/15 02:31:39;;;;;;;15.50;9.48;;;;;;;;;;1046711;28;20566;-67
2023/12/15 02:32:10;;;;;;;17.20;9.30;;;;;;;;;;1048621;28;20439;-67
2023/12/15 02:32:40;;;;;;;16.17;8.23;;;;;;;;;;1047910;28;20063;-66
2023/12/15 02:33:11;;;;;;;15.98;8.05;;;;;;;;;;1048914;28;20048;-66
2023/12/15 02:33:41;;;;;;;16.70;9.18;;;;;;;;;;1047701;28;20134;-66
2023/12/15 02:34:12;;;;;;;17.50;9.25;;;;;;;;;;1049911;28;20040;-66
2023/12/15 02:34:43;;;;;;;15.77;9.25;;;;;;;;;;1048964;28;20048;-66
2023/12/15 02:35:14;;;;;;;16.40;8.52;;;;;;;;;;1049320;28;20048;-66
2023/12/15 02:35:47;;;;;;;15.75;8.85;;;;;;;;;;1048990;28;20044;-66
2023/12/15 02:36:22;;;;;;;14.07;8.43;;;;;;;;;;1048792;28;20048;-66
2023/12/15 02:36:53;;;;;;;15.13;8.48;;;;;;;;;;1047186;28;20048;-66
2023/12/15 02:37:23;;;;;;;12.48;7.43;;;;;;;;;;1047890;28;20047;-65
2023/12/15 02:37:54;;;;;;;14.20;8.52;;;;;;;;;;1048102;28;20061;-66
2023/12/15 02:38:25;;;;;;;15.85;8.40;;;;;;;;;;1049247;28;20156;-66
2023/12/15 02:38:55;;;;;;;15.50;8.48;;;;;;;;;;1048785;28;21072;-65
2023/12/15 02:39:26;;;;;;;15.00;9.00;;;;;;;;;;1048084;28;20046;-66
2023/12/15 02:39:57;;;;;;;15.93;8.93;;;;;;;;;;1048805;28;20040;-67
2023/12/15 02:40:28;;;;;;;17.05;8.88;;;;;;;;;;1049735;28;20047;-66
2023/12/15 02:40:58;;;;;;;13.95;8.30;;;;;;;;;;1048104;28;20044;-67
2023/12/15 02:41:32;;;;;;;17.05;8.45;;;;;;;;;;1048996;28;20059;-66
2023/12/15 02:42:03;;;;;;;17.02;9.23;;;;;;;;;;1048238;28;20131;-66
2023/12/15 02:42:33;;;;;;;14.27;7.88;;;;;;;;;;1049433;28;20048;-66
2023/12/15 02:43:04;;;;;;;16.80;8.70;;;;;;;;;;1048101;28;20085;-66
2023/12/15 02:43:35;;;;;;;17.60;8.63;;;;;;;;;;1048479;28;20649;-66
2023/12/15 02:44:05;;;;;;;17.45;8.85;;;;;;;;;;1048449;28;20048;-67
2023/12/15 02:44:36;;;;;;;14.63;7.88;;;;;;;;;;1047402;28;20049;-65
2023/12/15 02:45:07;;;;;;;17.65;9.90;;;;;;;;;;1048406;28;20078;-66
2023/12/15 02:45:37;;;;;;;20.35;8.65;;;;;;;;;;1049108;28;20064;-66
2023/12/15 02:46:08;;;;;;;14.60;8.57;;;;;;;;;;1046548;28;20071;-66
2023/12/15 02:46:39;;;;;;;15.77;8.13;;;;;;;;;;1047666;28;20066;-66
2023/12/15 02:47:09;;;;;;;14.60;8.52;;;;;;;;;;1047711;28;20045;-67
2023/12/15 02:47:40;;;;;;;14.48;7.82;;;;;;;;;;1048176;28;20044;-67
2023/12/15 02:48:10;;;;;;;15.90;8.68;;;;;;;;;;1048475;28;20054;-66
2023/12/15 02:48:41;;;;;;;14.60;8.50;;;;;;;;;;1049427;28;20047;-67
2023/12/15 02:49:11;;;;;;;16.20;8.52;;;;;;;;;;1043587;28;20048;-66
2023/12/15 02:49:42;;;;;;;13.35;7.65;;;;;;;;;;1041631;28;20056;-65
2023/12/15 02:50:13;;;;;;;15.88;9.18;;;;;;;;;;1044738;28;20058;-66
2023/12/15 02:50:43;;;;;;;14.25;7.78;;;;;;;;;;1044296;28;20053;-66
2023/12/15 02:51:31;;;;;;;18.00;9.45;;;;;;;;;;1044139;28;20044;-66
2023/12/15 02:52:02;;;;;;;15.02;7.97;;;;;;;;;;1042280;28;20148;-66
2023/12/15 02:52:32;;;;;;;13.48;7.72;;;;;;;;;;1041460;28;20068;-67
2023/12/15 02:53:03;;;;;;;17.80;8.57;;;;;;;;;;1042802;28;20160;-66
2023/12/15 02:53:34;;;;;;;14.38;8.15;;;;;;;;;;1041574;28;20057;-66
2023/12/15 02:54:05;;;;;;;14.55;7.97;;;;;;;;;;1041797;28;20048;-66
2023/12/15 02:54:36;;;;;;;14.40;8.73;;;;;;;;;;1042406;28;20117;-66
2023/12/15 02:55:07;;;;;;;12.77;8.30;;;;;;;;;;1042672;28;20048;-66
2023/12/15 02:55:37;;;;;;;14.88;8.35;;;;;;;;;;1041911;28;20041;-66
2023/12/15 02:56:08;;;;;;;15.13;8.10;;;;;;;;;;1042325;28;20710;-66
2023/12/15 02:56:38;;;;;;;15.27;7.72;;;;;;;;;;1043664;28;20133;-66
2023/12/15 02:57:09;;;;;;;13.95;7.97;;;;;;;;;;1042374;28;20061;-66
2023/12/15 02:57:39;;;;;;;14.85;8.32;;;;;;;;;;1042659;28;20054;-67
2023/12/15 02:58:10;;;;;;;14.93;7.85;;;;;;;;;;1045368;28;20474;-67
2023/12/15 02:58:41;;;;;;;17.75;9.85;;;;;;;;;;1045819;28;20062;-67
2023/12/15 02:59:11;;;;;;;18.85;9.60;;;;;;;;;;1045632;28;20048;-67
2023/12/15 02:59:42;;;;;;;13.85;8.45;;;;;;;;;;1042516;28;20045;-66
2023/12/15 03:00:14;;;;;;;16.75;8.32;;;;;;;;;;1043088;28;20048;-66
2023/12/15 03:00:46;;;;;;;12.93;7.95;;;;;;;;;;1041523;28;20047;-66
2023/12/15 03:01:17;;;;;;;16.73;8.48;;;;;;;;;;1045491;28;20602;-66
2023/12/15 03:01:47;;;;;;;13.43;8.00;;;;;;;;;;1044299;28;20967;-66
2023/12/15 03:02:18;;;;;;;16.73;8.82;;;;;;;;;;1043875;28;20040;-66
2023/12/15 03:02:49;;;;;;;15.57;8.85;;;;;;;;;;1045800;28;20048;-66